sensor_id;sensor_type;location;lat;lon;timestamp;P1;durP1;ratioP1;P2;durP2;ratioP2
20725;SDS011;10524;48.132;8.518;2023-01-23T00:00:06;24.40;;;14.70;;
20725;SDS011;10524;48.132;8.518;2023-01-23T00:02:35;24.25;;;13.82;;
20725;SDS011;10524;48.132;8.518;2023-01-23T00:05:00;24.48;;;14.55;;
20725;SDS011;10524;48.132;8.518;2023-01-23T00:07:26;24.40;;;14.20;;
20725;SDS011;10524;48.132;8.518;2023-01-23T00:09:52;24.65;;;14.05;;
20725;SDS011;10524;48.132;8.518;2023-01-23T00:12:17;24.90;;;14.05;;
20725;SDS011;10524;48.132;8.518;2023-01-23T00:14:43;24.67;;;14.07;;
20725;SDS011;10524;48.132;8.518;2023-01-23T00:17:09;22.08;;;13.60;;
20725;SDS011;10524;48.132;8.518;2023-01-23T00:19:34;22.83;;;12.90;;
20725;SDS011;10524;48.132;8.518;2023-01-23T00:22:00;20.88;;;12.77;;
20725;SDS011;10524;48.132;8.518;2023-01-23T00:24:25;21.27;;;12.40;;
20725;SDS011;10524;48.132;8.518;2023-01-23T00:26:51;20.23;;;12.18;;
20725;SDS011;10524;48.132;8.518;2023-01-23T00:29:17;19.60;;;12.23;;
20725;SDS011;10524;48.132;8.518;2023-01-23T00:31:42;20.05;;;12.20;;
20725;SDS011;10524;48.132;8.518;2023-01-23T00:34:10;23.58;;;12.13;;
20725;SDS011;10524;48.132;8.518;2023-01-23T00:36:37;22.35;;;12.40;;
20725;SDS011;10524;48.132;8.518;2023-01-23T00:39:05;22.02;;;12.55;;
20725;SDS011;10524;48.132;8.518;2023-01-23T00:41:33;22.52;;;12.43;;
20725;SDS011;10524;48.132;8.518;2023-01-23T00:43:59;23.25;;;13.32;;
20725;SDS011;10524;48.132;8.518;2023-01-23T00:46:25;21.45;;;12.30;;
20725;SDS011;10524;48.132;8.518;2023-01-23T00:48:51;25.48;;;13.77;;
20725;SDS011;10524;48.132;8.518;2023-01-23T00:51:16;26.38;;;14.23;;
20725;SDS011;10524;48.132;8.518;2023-01-23T00:53:43;24.60;;;13.38;;
20725;SDS011;10524;48.132;8.518;2023-01-23T00:56:08;26.55;;;13.95;;
20725;SDS011;10524;48.132;8.518;2023-01-23T00:58:34;26.15;;;14.07;;
20725;SDS011;10524;48.132;8.518;2023-01-23T01:01:00;24.98;;;13.25;;
20725;SDS011;10524;48.132;8.518;2023-01-23T01:03:26;26.92;;;14.38;;
20725;SDS011;10524;48.132;8.518;2023-01-23T01:05:52;26.38;;;14.30;;
20725;SDS011;10524;48.132;8.518;2023-01-23T01:08:17;24.55;;;13.60;;
20725;SDS011;10524;48.132;8.518;2023-01-23T01:10:43;27.10;;;13.85;;
20725;SDS011;10524;48.132;8.518;2023-01-23T01:13:09;25.17;;;13.25;;
20725;SDS011;10524;48.132;8.518;2023-01-23T01:15:35;26.55;;;14.23;;
20725;SDS011;10524;48.132;8.518;2023-01-23T01:18:02;26.63;;;13.90;;
20725;SDS011;10524;48.132;8.518;2023-01-23T01:20:28;28.38;;;16.65;;
20725;SDS011;10524;48.132;8.518;2023-01-23T01:22:54;27.80;;;16.92;;
20725;SDS011;10524;48.132;8.518;2023-01-23T01:25:23;28.00;;;16.98;;
20725;SDS011;10524;48.132;8.518;2023-01-23T01:27:49;27.58;;;14.70;;
20725;SDS011;10524;48.132;8.518;2023-01-23T01:30:15;27.02;;;14.18;;
20725;SDS011;10524;48.132;8.518;2023-01-23T01:32:42;26.45;;;13.55;;
20725;SDS011;10524;48.132;8.518;2023-01-23T01:35:08;28.08;;;14.20;;
20725;SDS011;10524;48.132;8.518;2023-01-23T01:37:35;26.15;;;14.15;;
20725;SDS011;10524;48.132;8.518;2023-01-23T01:40:01;25.40;;;13.88;;
20725;SDS011;10524;48.132;8.518;2023-01-23T01:42:28;24.65;;;13.48;;
20725;SDS011;10524;48.132;8.518;2023-01-23T01:44:56;28.25;;;14.63;;
20725;SDS011;10524;48.132;8.518;2023-01-23T01:47:25;29.83;;;15.63;;
20725;SDS011;10524;48.132;8.518;2023-01-23T01:49:52;28.63;;;15.18;;
20725;SDS011;10524;48.132;8.518;2023-01-23T01:52:21;30.95;;;16.15;;
20725;SDS011;10524;48.132;8.518;2023-01-23T01:54:50;29.27;;;15.57;;
20725;SDS011;10524;48.132;8.518;2023-01-23T02:02:32;29.48;;;16.30;;
20725;SDS011;10524;48.132;8.518;2023-01-23T02:05:03;30.30;;;15.90;;
20725;SDS011;10524;48.132;8.518;2023-01-23T02:07:47;31.08;;;15.98;;
20725;SDS011;10524;48.132;8.518;2023-01-23T02:10:19;28.38;;;15.77;;
20725;SDS011;10524;48.132;8.518;2023-01-23T02:12:47;28.75;;;16.17;;
20725;SDS011;10524;48.132;8.518;2023-01-23T02:15:14;28.67;;;16.17;;
20725;SDS011;10524;48.132;8.518;2023-01-23T02:17:41;30.75;;;16.65;;
20725;SDS011;10524;48.132;8.518;2023-01-23T02:25:39;29.20;;;16.77;;
20725;SDS011;10524;48.132;8.518;2023-01-23T02:28:07;22.03;;;11.83;;
20725;SDS011;10524;48.132;8.518;2023-01-23T02:30:34;29.42;;;16.10;;
20725;SDS011;10524;48.132;8.518;2023-01-23T02:33:11;32.20;;;16.90;;
20725;SDS011;10524;48.132;8.518;2023-01-23T02:35:56;32.15;;;16.73;;
20725;SDS011;10524;48.132;8.518;2023-01-23T02:38:25;34.58;;;17.13;;
20725;SDS011;10524;48.132;8.518;2023-01-23T02:40:53;30.33;;;16.33;;
20725;SDS011;10524;48.132;8.518;2023-01-23T02:43:21;33.60;;;17.95;;
20725;SDS011;10524;48.132;8.518;2023-01-23T02:45:50;31.92;;;17.27;;
20725;SDS011;10524;48.132;8.518;2023-01-23T02:48:19;34.58;;;17.70;;
20725;SDS011;10524;48.132;8.518;2023-01-23T02:50:47;32.33;;;17.48;;
20725;SDS011;10524;48.132;8.518;2023-01-23T02:53:12;36.63;;;17.98;;
20725;SDS011;10524;48.132;8.518;2023-01-23T02:55:38;46.72;;;19.42;;
20725;SDS011;10524;48.132;8.518;2023-01-23T02:58:07;34.85;;;16.70;;
20725;SDS011;10524;48.132;8.518;2023-01-23T03:00:51;34.22;;;17.40;;
20725;SDS011;10524;48.132;8.518;2023-01-23T03:03:17;30.92;;;17.63;;
20725;SDS011;10524;48.132;8.518;2023-01-23T03:05:42;34.17;;;17.63;;
20725;SDS011;10524;48.132;8.518;2023-01-23T03:08:10;35.58;;;17.52;;
20725;SDS011;10524;48.132;8.518;2023-01-23T03:10:36;29.95;;;15.90;;
20725;SDS011;10524;48.132;8.518;2023-01-23T03:13:02;31.10;;;16.38;;
20725;SDS011;10524;48.132;8.518;2023-01-23T03:15:31;30.45;;;16.38;;
20725;SDS011;10524;48.132;8.518;2023-01-23T03:17:57;32.63;;;17.30;;
20725;SDS011;10524;48.132;8.518;2023-01-23T03:20:24;29.65;;;16.15;;
20725;SDS011;10524;48.132;8.518;2023-01-23T03:22:51;31.63;;;15.57;;
20725;SDS011;10524;48.132;8.518;2023-01-23T03:25:17;29.27;;;16.05;;
20725;SDS011;10524;48.132;8.518;2023-01-23T03:27:43;26.85;;;15.52;;
20725;SDS011;10524;48.132;8.518;2023-01-23T03:30:12;25.98;;;14.60;;
20725;SDS011;10524;48.132;8.518;2023-01-23T03:32:40;26.88;;;15.68;;
20725;SDS011;10524;48.132;8.518;2023-01-23T03:35:07;26.98;;;15.13;;
20725;SDS011;10524;48.132;8.518;2023-01-23T03:37:47;29.63;;;16.13;;
20725;SDS011;10524;48.132;8.518;2023-01-23T03:40:18;29.63;;;16.42;;
20725;SDS011;10524;48.132;8.518;2023-01-23T03:43:04;27.20;;;15.27;;
20725;SDS011;10524;48.132;8.518;2023-01-23T03:45:30;29.63;;;15.93;;
20725;SDS011;10524;48.132;8.518;2023-01-23T03:47:55;28.17;;;15.65;;
20725;SDS011;10524;48.132;8.518;2023-01-23T03:50:21;28.70;;;16.08;;
20725;SDS011;10524;48.132;8.518;2023-01-23T03:52:47;27.95;;;15.48;;
20725;SDS011;10524;48.132;8.518;2023-01-23T03:55:12;29.42;;;15.40;;
20725;SDS011;10524;48.132;8.518;2023-01-23T03:57:38;31.70;;;16.63;;
20725;SDS011;10524;48.132;8.518;2023-01-23T04:00:04;29.77;;;16.60;;
20725;SDS011;10524;48.132;8.518;2023-01-23T04:02:31;30.10;;;16.60;;
20725;SDS011;10524;48.132;8.518;2023-01-23T04:04:57;30.23;;;16.25;;
20725;SDS011;10524;48.132;8.518;2023-01-23T04:07:22;30.77;;;16.92;;
20725;SDS011;10524;48.132;8.518;2023-01-23T04:09:48;31.65;;;16.40;;
20725;SDS011;10524;48.132;8.518;2023-01-23T04:12:14;29.38;;;17.08;;
20725;SDS011;10524;48.132;8.518;2023-01-23T04:14:40;32.60;;;18.52;;
20725;SDS011;10524;48.132;8.518;2023-01-23T04:17:06;33.88;;;17.75;;
20725;SDS011;10524;48.132;8.518;2023-01-23T04:19:32;32.25;;;17.70;;
20725;SDS011;10524;48.132;8.518;2023-01-23T04:21:58;30.20;;;16.52;;
20725;SDS011;10524;48.132;8.518;2023-01-23T04:24:25;34.33;;;18.13;;
20725;SDS011;10524;48.132;8.518;2023-01-23T04:26:51;28.65;;;16.85;;
20725;SDS011;10524;48.132;8.518;2023-01-23T04:29:17;31.10;;;16.60;;
20725;SDS011;10524;48.132;8.518;2023-01-23T04:31:43;30.42;;;16.92;;
20725;SDS011;10524;48.132;8.518;2023-01-23T04:34:08;28.75;;;16.02;;
20725;SDS011;10524;48.132;8.518;2023-01-23T04:36:34;28.25;;;16.15;;
20725;SDS011;10524;48.132;8.518;2023-01-23T04:39:00;29.42;;;16.55;;
20725;SDS011;10524;48.132;8.518;2023-01-23T04:41:27;26.67;;;15.02;;
20725;SDS011;10524;48.132;8.518;2023-01-23T04:43:54;27.10;;;15.20;;
20725;SDS011;10524;48.132;8.518;2023-01-23T04:46:19;24.85;;;14.07;;
20725;SDS011;10524;48.132;8.518;2023-01-23T04:48:45;25.55;;;14.45;;
20725;SDS011;10524;48.132;8.518;2023-01-23T04:51:11;23.52;;;14.23;;
20725;SDS011;10524;48.132;8.518;2023-01-23T04:53:37;22.33;;;13.27;;
20725;SDS011;10524;48.132;8.518;2023-01-23T04:56:03;18.67;;;10.77;;
20725;SDS011;10524;48.132;8.518;2023-01-23T04:58:29;16.23;;;10.23;;
20725;SDS011;10524;48.132;8.518;2023-01-23T05:01:00;16.52;;;10.35;;
20725;SDS011;10524;48.132;8.518;2023-01-23T05:03:29;16.35;;;9.52;;
20725;SDS011;10524;48.132;8.518;2023-01-23T05:05:56;13.85;;;8.75;;
20725;SDS011;10524;48.132;8.518;2023-01-23T05:08:22;13.35;;;8.20;;
20725;SDS011;10524;48.132;8.518;2023-01-23T05:10:48;13.63;;;7.50;;
20725;SDS011;10524;48.132;8.518;2023-01-23T05:13:13;12.32;;;7.75;;
20725;SDS011;10524;48.132;8.518;2023-01-23T05:15:39;12.23;;;7.53;;
20725;SDS011;10524;48.132;8.518;2023-01-23T05:18:04;20.73;;;11.93;;
20725;SDS011;10524;48.132;8.518;2023-01-23T05:20:30;12.20;;;7.60;;
20725;SDS011;10524;48.132;8.518;2023-01-23T05:22:56;12.15;;;8.07;;
20725;SDS011;10524;48.132;8.518;2023-01-23T05:25:22;12.50;;;7.93;;
20725;SDS011;10524;48.132;8.518;2023-01-23T05:27:50;10.90;;;6.82;;
20725;SDS011;10524;48.132;8.518;2023-01-23T05:30:16;10.32;;;7.00;;
20725;SDS011;10524;48.132;8.518;2023-01-23T05:32:43;8.82;;;6.13;;
20725;SDS011;10524;48.132;8.518;2023-01-23T05:35:09;12.30;;;7.53;;
20725;SDS011;10524;48.132;8.518;2023-01-23T05:37:35;11.00;;;7.20;;
20725;SDS011;10524;48.132;8.518;2023-01-23T05:40:01;10.00;;;5.70;;
20725;SDS011;10524;48.132;8.518;2023-01-23T05:42:27;9.48;;;5.50;;
20725;SDS011;10524;48.132;8.518;2023-01-23T05:44:53;10.07;;;6.05;;
20725;SDS011;10524;48.132;8.518;2023-01-23T05:47:18;11.05;;;6.22;;
20725;SDS011;10524;48.132;8.518;2023-01-23T05:49:44;9.05;;;6.32;;
20725;SDS011;10524;48.132;8.518;2023-01-23T05:52:10;10.20;;;5.65;;
20725;SDS011;10524;48.132;8.518;2023-01-23T05:54:36;9.35;;;5.88;;
20725;SDS011;10524;48.132;8.518;2023-01-23T05:57:01;8.35;;;5.60;;
20725;SDS011;10524;48.132;8.518;2023-01-23T05:59:29;9.55;;;6.15;;
20725;SDS011;10524;48.132;8.518;2023-01-23T06:01:54;10.88;;;6.63;;
20725;SDS011;10524;48.132;8.518;2023-01-23T06:04:20;11.07;;;7.45;;
20725;SDS011;10524;48.132;8.518;2023-01-23T06:06:46;11.68;;;7.45;;
20725;SDS011;10524;48.132;8.518;2023-01-23T06:09:11;10.95;;;7.20;;
20725;SDS011;10524;48.132;8.518;2023-01-23T06:11:37;13.95;;;8.52;;
20725;SDS011;10524;48.132;8.518;2023-01-23T06:14:03;11.45;;;7.38;;
20725;SDS011;10524;48.132;8.518;2023-01-23T06:16:29;9.40;;;6.30;;
20725;SDS011;10524;48.132;8.518;2023-01-23T06:18:54;10.20;;;6.60;;
20725;SDS011;10524;48.132;8.518;2023-01-23T06:21:20;9.88;;;6.50;;
20725;SDS011;10524;48.132;8.518;2023-01-23T06:23:45;9.23;;;6.03;;
20725;SDS011;10524;48.132;8.518;2023-01-23T06:26:12;9.30;;;5.85;;
20725;SDS011;10524;48.132;8.518;2023-01-23T06:28:38;10.40;;;6.80;;
20725;SDS011;10524;48.132;8.518;2023-01-23T06:31:04;9.75;;;6.30;;
20725;SDS011;10524;48.132;8.518;2023-01-23T06:33:31;10.48;;;6.72;;
20725;SDS011;10524;48.132;8.518;2023-01-23T06:35:57;9.63;;;6.82;;
20725;SDS011;10524;48.132;8.518;2023-01-23T06:38:24;15.85;;;10.75;;
20725;SDS011;10524;48.132;8.518;2023-01-23T06:40:51;9.10;;;5.72;;
20725;SDS011;10524;48.132;8.518;2023-01-23T06:43:17;17.98;;;10.02;;
20725;SDS011;10524;48.132;8.518;2023-01-23T06:45:43;14.43;;;8.75;;
20725;SDS011;10524;48.132;8.518;2023-01-23T06:48:09;9.43;;;6.40;;
20725;SDS011;10524;48.132;8.518;2023-01-23T06:50:36;7.20;;;5.20;;
20725;SDS011;10524;48.132;8.518;2023-01-23T06:53:03;9.07;;;5.97;;
20725;SDS011;10524;48.132;8.518;2023-01-23T06:55:29;8.32;;;5.88;;
20725;SDS011;10524;48.132;8.518;2023-01-23T06:57:55;7.80;;;5.47;;
20725;SDS011;10524;48.132;8.518;2023-01-23T07:00:21;8.68;;;5.90;;
20725;SDS011;10524;48.132;8.518;2023-01-23T07:02:46;11.02;;;7.10;;
20725;SDS011;10524;48.132;8.518;2023-01-23T07:05:12;9.85;;;6.75;;
20725;SDS011;10524;48.132;8.518;2023-01-23T07:07:38;11.48;;;6.80;;
20725;SDS011;10524;48.132;8.518;2023-01-23T07:10:04;10.48;;;6.82;;
20725;SDS011;10524;48.132;8.518;2023-01-23T07:12:31;11.70;;;7.22;;
20725;SDS011;10524;48.132;8.518;2023-01-23T07:14:56;11.43;;;7.30;;
20725;SDS011;10524;48.132;8.518;2023-01-23T07:17:22;11.60;;;7.18;;
20725;SDS011;10524;48.132;8.518;2023-01-23T07:19:48;11.02;;;6.88;;
20725;SDS011;10524;48.132;8.518;2023-01-23T07:22:17;11.75;;;7.35;;
20725;SDS011;10524;48.132;8.518;2023-01-23T07:24:44;12.88;;;8.02;;
20725;SDS011;10524;48.132;8.518;2023-01-23T07:27:09;12.23;;;7.95;;
20725;SDS011;10524;48.132;8.518;2023-01-23T07:29:35;13.13;;;8.65;;
20725;SDS011;10524;48.132;8.518;2023-01-23T07:32:00;13.85;;;8.27;;
20725;SDS011;10524;48.132;8.518;2023-01-23T07:34:26;15.05;;;8.40;;
20725;SDS011;10524;48.132;8.518;2023-01-23T07:36:52;14.02;;;9.00;;
20725;SDS011;10524;48.132;8.518;2023-01-23T07:39:18;15.30;;;9.50;;
20725;SDS011;10524;48.132;8.518;2023-01-23T07:41:43;14.88;;;9.63;;
20725;SDS011;10524;48.132;8.518;2023-01-23T07:44:13;15.10;;;9.27;;
20725;SDS011;10524;48.132;8.518;2023-01-23T07:46:42;16.15;;;10.32;;
20725;SDS011;10524;48.132;8.518;2023-01-23T07:49:08;17.95;;;10.48;;
20725;SDS011;10524;48.132;8.518;2023-01-23T07:51:34;16.63;;;10.45;;
20725;SDS011;10524;48.132;8.518;2023-01-23T07:53:59;17.08;;;10.13;;
20725;SDS011;10524;48.132;8.518;2023-01-23T07:56:25;16.70;;;9.82;;
20725;SDS011;10524;48.132;8.518;2023-01-23T07:58:51;19.17;;;10.65;;
20725;SDS011;10524;48.132;8.518;2023-01-23T08:01:16;20.75;;;11.85;;
20725;SDS011;10524;48.132;8.518;2023-01-23T08:03:43;20.05;;;11.50;;
20725;SDS011;10524;48.132;8.518;2023-01-23T08:06:09;20.30;;;11.98;;
20725;SDS011;10524;48.132;8.518;2023-01-23T08:08:35;21.77;;;12.93;;
20725;SDS011;10524;48.132;8.518;2023-01-23T08:11:07;21.48;;;12.50;;
20725;SDS011;10524;48.132;8.518;2023-01-23T08:13:37;22.30;;;12.70;;
20725;SDS011;10524;48.132;8.518;2023-01-23T08:16:02;21.45;;;12.70;;
20725;SDS011;10524;48.132;8.518;2023-01-23T08:18:29;23.10;;;13.82;;
20725;SDS011;10524;48.132;8.518;2023-01-23T08:20:56;25.38;;;13.88;;
20725;SDS011;10524;48.132;8.518;2023-01-23T08:23:23;24.08;;;14.00;;
20725;SDS011;10524;48.132;8.518;2023-01-23T08:25:54;23.35;;;14.00;;
20725;SDS011;10524;48.132;8.518;2023-01-23T08:28:21;27.20;;;15.30;;
20725;SDS011;10524;48.132;8.518;2023-01-23T08:30:47;24.02;;;14.18;;
20725;SDS011;10524;48.132;8.518;2023-01-23T08:33:13;24.02;;;13.70;;
20725;SDS011;10524;48.132;8.518;2023-01-23T08:35:46;27.70;;;14.43;;
20725;SDS011;10524;48.132;8.518;2023-01-23T08:38:13;26.77;;;15.55;;
20725;SDS011;10524;48.132;8.518;2023-01-23T08:40:38;26.65;;;15.25;;
20725;SDS011;10524;48.132;8.518;2023-01-23T08:43:04;25.05;;;15.02;;
20725;SDS011;10524;48.132;8.518;2023-01-23T08:45:30;27.60;;;15.45;;
20725;SDS011;10524;48.132;8.518;2023-01-23T08:47:55;26.50;;;16.27;;
20725;SDS011;10524;48.132;8.518;2023-01-23T08:50:21;25.08;;;15.02;;
20725;SDS011;10524;48.132;8.518;2023-01-23T08:52:47;23.60;;;13.25;;
20725;SDS011;10524;48.132;8.518;2023-01-23T08:55:12;23.30;;;13.85;;
20725;SDS011;10524;48.132;8.518;2023-01-23T08:57:38;24.27;;;13.98;;
20725;SDS011;10524;48.132;8.518;2023-01-23T09:00:04;24.38;;;14.35;;
20725;SDS011;10524;48.132;8.518;2023-01-23T09:02:30;23.48;;;14.10;;
20725;SDS011;10524;48.132;8.518;2023-01-23T09:04:55;21.13;;;12.38;;
20725;SDS011;10524;48.132;8.518;2023-01-23T09:07:21;24.90;;;14.43;;
20725;SDS011;10524;48.132;8.518;2023-01-23T09:09:46;25.80;;;14.25;;
20725;SDS011;10524;48.132;8.518;2023-01-23T09:12:12;24.75;;;14.60;;
20725;SDS011;10524;48.132;8.518;2023-01-23T09:14:38;24.58;;;14.90;;
20725;SDS011;10524;48.132;8.518;2023-01-23T09:17:04;24.65;;;14.90;;
20725;SDS011;10524;48.132;8.518;2023-01-23T09:19:30;24.60;;;15.10;;
20725;SDS011;10524;48.132;8.518;2023-01-23T09:21:56;26.73;;;16.40;;
20725;SDS011;10524;48.132;8.518;2023-01-23T09:24:22;24.88;;;15.50;;
20725;SDS011;10524;48.132;8.518;2023-01-23T09:26:47;24.00;;;14.23;;
20725;SDS011;10524;48.132;8.518;2023-01-23T09:29:13;24.67;;;13.77;;
20725;SDS011;10524;48.132;8.518;2023-01-23T09:31:39;23.40;;;13.63;;
20725;SDS011;10524;48.132;8.518;2023-01-23T09:34:05;21.88;;;13.23;;
20725;SDS011;10524;48.132;8.518;2023-01-23T09:36:31;22.27;;;13.98;;
20725;SDS011;10524;48.132;8.518;2023-01-23T09:38:58;23.92;;;13.90;;
20725;SDS011;10524;48.132;8.518;2023-01-23T09:41:25;24.35;;;14.70;;
20725;SDS011;10524;48.132;8.518;2023-01-23T09:43:56;21.65;;;13.85;;
20725;SDS011;10524;48.132;8.518;2023-01-23T09:52:15;21.13;;;13.00;;
20725;SDS011;10524;48.132;8.518;2023-01-23T09:54:48;22.25;;;13.20;;
20725;SDS011;10524;48.132;8.518;2023-01-23T09:57:27;18.65;;;12.55;;
20725;SDS011;10524;48.132;8.518;2023-01-23T10:00:21;21.17;;;13.10;;
20725;SDS011;10524;48.132;8.518;2023-01-23T10:02:47;24.52;;;14.70;;
20725;SDS011;10524;48.132;8.518;2023-01-23T10:05:16;21.80;;;12.70;;
20725;SDS011;10524;48.132;8.518;2023-01-23T10:10:46;19.63;;;12.60;;
20725;SDS011;10524;48.132;8.518;2023-01-23T10:24:31;19.50;;;12.25;;
20725;SDS011;10524;48.132;8.518;2023-01-23T10:29:56;20.70;;;12.35;;
20725;SDS011;10524;48.132;8.518;2023-01-23T10:32:27;22.00;;;13.23;;
20725;SDS011;10524;48.132;8.518;2023-01-23T10:34:57;21.65;;;11.88;;
20725;SDS011;10524;48.132;8.518;2023-01-23T10:40:20;21.23;;;13.32;;
20725;SDS011;10524;48.132;8.518;2023-01-23T10:43:13;20.02;;;12.82;;
20725;SDS011;10524;48.132;8.518;2023-01-23T10:45:40;21.70;;;12.98;;
20725;SDS011;10524;48.132;8.518;2023-01-23T10:48:25;20.90;;;12.65;;
20725;SDS011;10524;48.132;8.518;2023-01-23T10:50:54;23.48;;;13.35;;
20725;SDS011;10524;48.132;8.518;2023-01-23T10:53:20;19.60;;;12.55;;
20725;SDS011;10524;48.132;8.518;2023-01-23T10:55:46;18.73;;;12.20;;
20725;SDS011;10524;48.132;8.518;2023-01-23T10:58:21;19.02;;;12.23;;
20725;SDS011;10524;48.132;8.518;2023-01-23T11:00:53;18.83;;;11.45;;
20725;SDS011;10524;48.132;8.518;2023-01-23T11:05:45;22.17;;;12.57;;
20725;SDS011;10524;48.132;8.518;2023-01-23T11:13:42;20.88;;;12.38;;
20725;SDS011;10524;48.132;8.518;2023-01-23T11:16:16;20.23;;;12.50;;
20725;SDS011;10524;48.132;8.518;2023-01-23T11:18:53;21.23;;;12.30;;
20725;SDS011;10524;48.132;8.518;2023-01-23T11:23:48;23.55;;;13.73;;
20725;SDS011;10524;48.132;8.518;2023-01-23T11:28:57;22.65;;;12.65;;
20725;SDS011;10524;48.132;8.518;2023-01-23T11:31:24;21.48;;;13.02;;
20725;SDS011;10524;48.132;8.518;2023-01-23T11:34:00;23.05;;;12.85;;
20725;SDS011;10524;48.132;8.518;2023-01-23T11:36:46;21.02;;;13.32;;
20725;SDS011;10524;48.132;8.518;2023-01-23T11:39:28;20.63;;;12.35;;
20725;SDS011;10524;48.132;8.518;2023-01-23T11:42:11;19.80;;;11.85;;
20725;SDS011;10524;48.132;8.518;2023-01-23T11:44:38;19.35;;;11.88;;
20725;SDS011;10524;48.132;8.518;2023-01-23T12:09:25;23.02;;;13.43;;
20725;SDS011;10524;48.132;8.518;2023-01-23T12:17:59;24.92;;;14.40;;
20725;SDS011;10524;48.132;8.518;2023-01-23T12:23:24;26.52;;;14.57;;
20725;SDS011;10524;48.132;8.518;2023-01-23T12:42:12;27.40;;;16.65;;
20725;SDS011;10524;48.132;8.518;2023-01-23T12:44:52;27.75;;;14.90;;
20725;SDS011;10524;48.132;8.518;2023-01-23T12:47:26;27.10;;;15.80;;
20725;SDS011;10524;48.132;8.518;2023-01-23T12:50:00;29.92;;;16.02;;
20725;SDS011;10524;48.132;8.518;2023-01-23T12:52:40;26.83;;;14.90;;
20725;SDS011;10524;48.132;8.518;2023-01-23T12:55:20;27.77;;;14.93;;
20725;SDS011;10524;48.132;8.518;2023-01-23T12:57:46;25.48;;;15.10;;
20725;SDS011;10524;48.132;8.518;2023-01-23T13:11:22;43.63;;;23.67;;
20725;SDS011;10524;48.132;8.518;2023-01-23T13:36:48;24.60;;;14.70;;
20725;SDS011;10524;48.132;8.518;2023-01-23T13:41:41;43.70;;;23.73;;
20725;SDS011;10524;48.132;8.518;2023-01-23T13:44:17;27.10;;;15.93;;
20725;SDS011;10524;48.132;8.518;2023-01-23T13:49:53;27.40;;;16.08;;
20725;SDS011;10524;48.132;8.518;2023-01-23T13:52:26;25.13;;;15.30;;
20725;SDS011;10524;48.132;8.518;2023-01-23T13:58:08;28.60;;;15.68;;
20725;SDS011;10524;48.132;8.518;2023-01-23T14:00:44;31.83;;;17.77;;
20725;SDS011;10524;48.132;8.518;2023-01-23T14:03:38;30.08;;;16.42;;
20725;SDS011;10524;48.132;8.518;2023-01-23T14:06:31;34.95;;;19.55;;
20725;SDS011;10524;48.132;8.518;2023-01-23T14:09:02;31.65;;;17.80;;
20725;SDS011;10524;48.132;8.518;2023-01-23T14:11:35;38.47;;;19.98;;
20725;SDS011;10524;48.132;8.518;2023-01-23T14:14:06;36.70;;;21.25;;
20725;SDS011;10524;48.132;8.518;2023-01-23T14:16:51;31.55;;;17.55;;
20725;SDS011;10524;48.132;8.518;2023-01-23T14:19:23;31.85;;;18.17;;
20725;SDS011;10524;48.132;8.518;2023-01-23T14:22:02;34.03;;;18.08;;
20725;SDS011;10524;48.132;8.518;2023-01-23T14:24:49;33.83;;;18.40;;
20725;SDS011;10524;48.132;8.518;2023-01-23T14:27:18;36.72;;;20.33;;
20725;SDS011;10524;48.132;8.518;2023-01-23T14:29:59;36.42;;;19.67;;
20725;SDS011;10524;48.132;8.518;2023-01-23T14:32:29;37.72;;;19.17;;
20725;SDS011;10524;48.132;8.518;2023-01-23T14:34:56;31.27;;;18.38;;
20725;SDS011;10524;48.132;8.518;2023-01-23T14:37:22;35.83;;;19.92;;
20725;SDS011;10524;48.132;8.518;2023-01-23T14:39:47;37.35;;;19.50;;
20725;SDS011;10524;48.132;8.518;2023-01-23T14:42:22;34.50;;;19.15;;
20725;SDS011;10524;48.132;8.518;2023-01-23T14:44:54;34.45;;;19.13;;
20725;SDS011;10524;48.132;8.518;2023-01-23T14:47:26;36.70;;;19.92;;
20725;SDS011;10524;48.132;8.518;2023-01-23T14:49:56;38.05;;;20.00;;
20725;SDS011;10524;48.132;8.518;2023-01-23T14:52:24;37.92;;;20.20;;
20725;SDS011;10524;48.132;8.518;2023-01-23T14:54:53;37.22;;;19.67;;
20725;SDS011;10524;48.132;8.518;2023-01-23T14:57:23;37.78;;;19.45;;
20725;SDS011;10524;48.132;8.518;2023-01-23T14:59:52;37.83;;;18.90;;
20725;SDS011;10524;48.132;8.518;2023-01-23T15:10:50;38.97;;;21.38;;
20725;SDS011;10524;48.132;8.518;2023-01-23T15:15:55;55.55;;;29.17;;
20725;SDS011;10524;48.132;8.518;2023-01-23T15:18:36;49.28;;;26.92;;
20725;SDS011;10524;48.132;8.518;2023-01-23T15:21:05;44.67;;;22.38;;
20725;SDS011;10524;48.132;8.518;2023-01-23T15:23:32;47.67;;;24.73;;
20725;SDS011;10524;48.132;8.518;2023-01-23T15:26:11;41.88;;;22.25;;
20725;SDS011;10524;48.132;8.518;2023-01-23T15:28:59;58.78;;;29.95;;
20725;SDS011;10524;48.132;8.518;2023-01-23T15:31:40;38.08;;;20.33;;
20725;SDS011;10524;48.132;8.518;2023-01-23T15:36:46;42.08;;;20.83;;
20725;SDS011;10524;48.132;8.518;2023-01-23T15:41:57;43.67;;;23.92;;
20725;SDS011;10524;48.132;8.518;2023-01-23T15:44:26;47.08;;;24.83;;
20725;SDS011;10524;48.132;8.518;2023-01-23T15:46:54;39.97;;;21.02;;
20725;SDS011;10524;48.132;8.518;2023-01-23T15:49:21;46.90;;;24.45;;
20725;SDS011;10524;48.132;8.518;2023-01-23T15:51:47;41.28;;;22.05;;
20725;SDS011;10524;48.132;8.518;2023-01-23T15:54:20;41.25;;;21.48;;
20725;SDS011;10524;48.132;8.518;2023-01-23T15:56:48;46.17;;;22.13;;
20725;SDS011;10524;48.132;8.518;2023-01-23T15:59:17;42.22;;;22.60;;
20725;SDS011;10524;48.132;8.518;2023-01-23T16:01:43;40.47;;;21.08;;
20725;SDS011;10524;48.132;8.518;2023-01-23T16:04:09;44.22;;;22.20;;
20725;SDS011;10524;48.132;8.518;2023-01-23T16:06:35;43.88;;;22.83;;
20725;SDS011;10524;48.132;8.518;2023-01-23T16:09:02;46.58;;;24.30;;
20725;SDS011;10524;48.132;8.518;2023-01-23T16:11:29;44.60;;;22.45;;
20725;SDS011;10524;48.132;8.518;2023-01-23T16:13:57;40.40;;;21.85;;
20725;SDS011;10524;48.132;8.518;2023-01-23T16:16:22;45.05;;;24.85;;
20725;SDS011;10524;48.132;8.518;2023-01-23T16:18:48;43.72;;;22.90;;
20725;SDS011;10524;48.132;8.518;2023-01-23T16:21:17;45.38;;;24.10;;
20725;SDS011;10524;48.132;8.518;2023-01-23T16:23:45;47.38;;;26.85;;
20725;SDS011;10524;48.132;8.518;2023-01-23T16:26:21;46.35;;;25.73;;
20725;SDS011;10524;48.132;8.518;2023-01-23T16:28:48;40.03;;;22.10;;
20725;SDS011;10524;48.132;8.518;2023-01-23T16:31:14;46.33;;;24.83;;
20725;SDS011;10524;48.132;8.518;2023-01-23T16:33:41;42.28;;;23.73;;
20725;SDS011;10524;48.132;8.518;2023-01-23T16:36:12;47.15;;;24.15;;
20725;SDS011;10524;48.132;8.518;2023-01-23T16:38:38;51.72;;;26.48;;
20725;SDS011;10524;48.132;8.518;2023-01-23T16:41:04;49.15;;;25.65;;
20725;SDS011;10524;48.132;8.518;2023-01-23T16:43:31;47.13;;;24.33;;
20725;SDS011;10524;48.132;8.518;2023-01-23T16:45:57;42.75;;;22.25;;
20725;SDS011;10524;48.132;8.518;2023-01-23T16:48:23;63.47;;;29.65;;
20725;SDS011;10524;48.132;8.518;2023-01-23T16:50:51;54.80;;;27.80;;
20725;SDS011;10524;48.132;8.518;2023-01-23T16:55:50;51.28;;;25.35;;
20725;SDS011;10524;48.132;8.518;2023-01-23T16:58:18;46.65;;;26.35;;
20725;SDS011;10524;48.132;8.518;2023-01-23T17:00:57;47.25;;;24.60;;
20725;SDS011;10524;48.132;8.518;2023-01-23T17:03:28;49.83;;;25.80;;
20725;SDS011;10524;48.132;8.518;2023-01-23T17:05:57;47.60;;;24.15;;
20725;SDS011;10524;48.132;8.518;2023-01-23T17:08:24;50.60;;;26.10;;